createdAt,value
2017-10-18T06:32:43.247Z,240
2017-10-18T06:33:52.573Z,248
2017-10-18T06:35:01.895Z,252
2017-10-18T06:36:11.294Z,244
2017-10-18T06:37:20.931Z,244
2017-10-18T06:38:29.600Z,256
2017-10-18T06:39:38.644Z,252
2017-10-18T06:40:47.957Z,280
2017-10-18T06:41:57.291Z,332
2017-10-18T06:43:06.276Z,344
2017-10-18T06:44:15.607Z,360
2017-10-18T06:45:24.603Z,368
2017-10-18T06:46:33.618Z,384
2017-10-18T06:47:42.616Z,396
2017-10-18T06:48:51.932Z,404
2017-10-18T06:50:01.008Z,376
2017-10-18T06:51:09.703Z,376
2017-10-18T06:52:19.037Z,376
2017-10-18T06:53:28.023Z,416
2017-10-18T06:54:37.022Z,424
2017-10-18T06:55:46.985Z,448
2017-10-18T06:56:55.972Z,448
2017-10-18T06:58:04.955Z,472
2017-10-18T06:59:13.617Z,480
2017-10-18T07:00:22.605Z,484
2017-10-18T07:01:32.927Z,484
2017-10-18T07:02:41.908Z,480
2017-10-18T07:03:50.943Z,488
2017-10-18T07:04:59.591Z,488
2017-10-18T07:06:08.288Z,488
2017-10-18T07:07:17.615Z,492
2017-10-18T07:08:26.599Z,504
2017-10-18T07:09:35.287Z,504
2017-10-18T07:10:44.272Z,508
2017-10-18T07:11:53.261Z,516
2017-10-18T07:13:01.923Z,520
2017-10-18T07:14:10.974Z,528
2017-10-18T07:15:20.357Z,540
2017-10-18T07:16:29.028Z,544
2017-10-18T07:17:38.346Z,520
2017-10-18T07:18:47.016Z,528
2017-10-18T07:19:56.346Z,516
2017-10-18T07:21:05.657Z,476
2017-10-18T07:22:14.642Z,452
2017-10-18T07:23:23.943Z,432
2017-10-18T07:24:32.699Z,400
2017-10-18T07:25:41.368Z,392
2017-10-18T07:26:50.355Z,384
2017-10-18T07:27:59.370Z,428
2017-10-18T07:29:08.040Z,428
2017-10-18T07:30:16.722Z,392
2017-10-18T07:31:25.701Z,380
2017-10-18T07:32:34.719Z,396
2017-10-18T07:33:44.048Z,400
2017-10-18T07:34:53.039Z,432
2017-10-18T07:36:02.094Z,416
2017-10-18T07:37:10.750Z,408
2017-10-18T07:38:20.082Z,416
2017-10-18T07:39:29.444Z,408
2017-10-18T07:40:38.840Z,416
2017-10-18T07:41:47.842Z,420
2017-10-18T07:42:56.864Z,432
2017-10-18T07:44:06.196Z,448
2017-10-18T07:45:15.320Z,436
2017-10-18T07:46:24.098Z,540
2017-10-18T07:47:33.754Z,576
2017-10-18T07:48:42.426Z,596
2017-10-18T07:49:51.104Z,616
2017-10-18T07:50:59.808Z,652
2017-10-18T07:52:08.457Z,664
2017-10-18T07:53:17.793Z,680
2017-10-18T07:54:26.454Z,696
2017-10-18T07:55:35.450Z,692
2017-10-18T07:56:44.462Z,692
2017-10-18T07:57:53.172Z,688
2017-10-18T07:59:02.198Z,696
2017-10-18T08:00:11.868Z,676
2017-10-18T08:01:21.206Z,644
2017-10-18T08:02:29.879Z,584
2017-10-18T08:03:39.210Z,592
2017-10-18T08:04:47.890Z,624
2017-10-18T08:05:56.877Z,688
2017-10-18T08:07:05.875Z,692
2017-10-18T08:08:14.561Z,688
2017-10-18T08:09:23.890Z,716
2017-10-18T08:10:33.211Z,728
2017-10-18T08:11:42.253Z,748
2017-10-18T08:12:51.572Z,780
2017-10-18T08:14:00.587Z,808
2017-10-18T08:15:09.581Z,812
2017-10-18T08:16:19.286Z,824
2017-10-18T08:17:28.287Z,812
2017-10-18T08:18:37.597Z,820
2017-10-18T08:19:46.916Z,812
2017-10-18T08:20:55.906Z,804
2017-10-18T08:22:05.237Z,800
2017-10-18T08:23:14.554Z,772
2017-10-18T08:24:23.555Z,788
2017-10-18T08:25:32.579Z,808
2017-10-18T08:26:41.916Z,800
2017-10-18T08:27:51.262Z,780
2017-10-18T08:29:00.602Z,784
2017-10-18T08:30:09.635Z,776
2017-10-18T08:31:18.635Z,780
2017-10-18T08:32:27.619Z,780
2017-10-18T08:33:36.349Z,720
2017-10-18T08:34:45.673Z,608
2017-10-18T08:35:54.680Z,568
2017-10-18T08:37:03.677Z,636
2017-10-18T08:38:12.355Z,652
2017-10-18T08:39:21.349Z,652
2017-10-18T08:40:30.034Z,732
2017-10-18T08:41:39.381Z,764
2017-10-18T08:42:48.049Z,772
2017-10-18T08:43:58.048Z,780
2017-10-18T08:45:07.358Z,752
2017-10-18T08:46:16.687Z,756
2017-10-18T08:47:26.328Z,784
2017-10-18T08:48:35.688Z,776
2017-10-18T08:49:44.691Z,772
2017-10-18T08:50:53.696Z,772
2017-10-18T08:52:02.681Z,772
2017-10-18T08:53:11.672Z,764
2017-10-18T08:54:20.678Z,768
2017-10-18T08:55:29.692Z,768
2017-10-18T08:56:38.353Z,764
2017-10-18T08:57:47.698Z,760
2017-10-18T08:58:57.368Z,764
2017-10-18T09:00:06.381Z,748
2017-10-18T09:01:15.052Z,720
2017-10-18T09:02:24.380Z,736
2017-10-18T09:03:33.395Z,732
2017-10-18T09:04:42.395Z,736
2017-10-18T09:05:51.729Z,740
2017-10-18T09:07:01.100Z,740
2017-10-18T09:08:09.777Z,736
2017-10-18T09:09:19.493Z,740
2017-10-18T09:10:28.832Z,740
2017-10-18T09:11:38.162Z,740
2017-10-18T09:12:47.502Z,728
2017-10-18T09:13:56.494Z,732
2017-10-18T09:15:06.152Z,732
2017-10-18T09:16:15.791Z,728
2017-10-18T09:17:24.801Z,724
2017-10-18T09:18:34.447Z,724
2017-10-18T09:19:43.449Z,728
2017-10-18T09:20:53.113Z,724
2017-10-18T09:22:01.792Z,724
2017-10-18T09:23:11.144Z,724
2017-10-18T09:24:19.813Z,720
2017-10-18T09:25:29.583Z,720
2017-10-18T09:26:38.587Z,716
2017-10-18T09:27:48.243Z,716
2017-10-18T09:28:57.571Z,712
2017-10-18T09:30:07.546Z,696
2017-10-18T09:31:16.579Z,696
2017-10-18T09:32:25.567Z,704
2017-10-18T09:33:34.293Z,708
2017-10-18T09:34:43.325Z,708
2017-10-18T09:35:52.307Z,708
2017-10-18T09:37:33.400Z,708
2017-10-18T09:38:43.044Z,708
2017-10-18T09:39:52.051Z,712
2017-10-18T09:41:00.721Z,708
2017-10-18T09:42:09.719Z,700
2017-10-18T09:43:18.709Z,704
2017-10-18T09:44:27.689Z,716
2017-10-18T09:45:37.003Z,728
2017-10-18T09:46:46.005Z,748
2017-10-18T09:47:55.343Z,752
2017-10-18T09:49:04.017Z,752
2017-10-18T09:50:13.352Z,744
2017-10-18T09:51:23.000Z,728
2017-10-18T09:52:31.659Z,712
2017-10-18T09:53:40.322Z,704
2017-10-18T09:54:48.977Z,724
2017-10-18T09:55:57.965Z,728
2017-10-18T09:57:07.289Z,744
2017-10-18T09:58:16.360Z,768
2017-10-18T09:59:25.038Z,784
2017-10-18T10:00:34.025Z,796
2017-10-18T10:01:43.043Z,812
2017-10-18T10:02:52.035Z,840
2017-10-18T10:04:01.020Z,820
2017-10-18T10:05:11.017Z,828
2017-10-18T10:06:20.030Z,864
2017-10-18T10:07:30.022Z,880
2017-10-18T10:08:39.018Z,904
2017-10-18T10:09:47.678Z,884
2017-10-18T10:10:56.357Z,880
2017-10-18T10:12:05.346Z,872
2017-10-18T10:13:14.408Z,868
2017-10-18T10:14:23.094Z,892
2017-10-18T10:15:32.100Z,952
2017-10-18T10:16:41.424Z,1020
2017-10-18T10:17:51.078Z,1080
2017-10-18T10:19:00.064Z,1112
2017-10-18T10:20:08.737Z,1100
2017-10-18T10:21:18.062Z,1060
2017-10-18T10:22:26.711Z,1000
2017-10-18T10:23:35.688Z,940
2017-10-18T10:24:45.051Z,888
2017-10-18T10:25:53.712Z,848
2017-10-18T10:27:03.398Z,824
2017-10-18T10:28:12.416Z,796
2017-10-18T10:29:21.417Z,772
2017-10-18T10:30:30.735Z,752
2017-10-18T10:31:40.038Z,744
2017-10-18T10:32:49.040Z,752
2017-10-18T10:33:58.366Z,760
2017-10-18T10:35:07.387Z,756
2017-10-18T10:36:17.054Z,756
2017-10-18T10:37:26.041Z,748
2017-10-18T10:38:34.697Z,724
2017-10-18T10:39:44.006Z,704
2017-10-18T10:40:53.377Z,708
2017-10-18T10:42:02.366Z,704
2017-10-18T10:43:11.077Z,692
2017-10-18T10:44:19.737Z,684
2017-10-18T10:45:29.424Z,672
2017-10-18T10:46:38.137Z,664
2017-10-18T10:47:47.642Z,660
2017-10-18T10:48:56.682Z,656
2017-10-18T10:50:06.002Z,660
2017-10-18T10:51:15.005Z,656
2017-10-18T10:52:24.005Z,656
2017-10-18T10:53:33.072Z,656
2017-10-18T10:54:42.411Z,664
2017-10-18T10:55:51.087Z,664
2017-10-18T10:56:59.787Z,656
2017-10-18T10:58:08.779Z,648
2017-10-18T10:59:17.766Z,644
2017-10-18T11:00:26.799Z,640
2017-10-18T11:01:35.786Z,632
2017-10-18T11:02:45.208Z,632
2017-10-18T11:03:54.215Z,628
2017-10-18T11:05:02.896Z,628
2017-10-18T11:06:12.234Z,628
2017-10-18T11:07:21.279Z,624
2017-10-18T11:08:30.056Z,624
2017-10-18T11:09:39.062Z,624
2017-10-18T11:10:48.055Z,620
2017-10-18T11:11:57.075Z,616
2017-10-18T11:13:06.429Z,612
2017-10-18T11:14:15.763Z,616
2017-10-18T11:15:24.807Z,616
2017-10-18T11:16:33.815Z,620
2017-10-18T11:17:42.484Z,620
2017-10-18T11:18:51.465Z,616
2017-10-18T11:20:00.443Z,612
2017-10-18T11:21:09.769Z,612
2017-10-18T11:22:18.769Z,608
2017-10-18T11:23:27.759Z,608
2017-10-18T11:24:36.446Z,608
2017-10-18T11:25:45.446Z,600
2017-10-18T11:26:54.117Z,600
2017-10-18T11:28:03.417Z,600
2017-10-18T11:29:12.754Z,596
2017-10-18T11:30:21.759Z,596
2017-10-18T11:31:31.104Z,596
2017-10-18T11:32:40.128Z,592
2017-10-18T11:33:49.102Z,592
2017-10-18T11:34:58.454Z,588
2017-10-18T11:36:07.510Z,584
2017-10-18T11:37:17.185Z,584
2017-10-18T11:38:26.325Z,584
2017-10-18T11:39:35.465Z,584
2017-10-18T11:40:44.801Z,580
2017-10-18T11:41:53.798Z,580
2017-10-18T11:43:02.464Z,580
2017-10-18T11:44:11.789Z,576
2017-10-18T11:45:20.451Z,576
2017-10-18T11:46:29.799Z,576
2017-10-18T11:47:39.111Z,572
2017-10-18T11:48:48.143Z,576
2017-10-18T11:49:57.151Z,572
2017-10-18T11:51:06.462Z,572
2017-10-18T11:52:15.125Z,568
2017-10-18T11:53:23.782Z,568
2017-10-18T11:54:33.450Z,568
2017-10-18T11:55:42.434Z,564
2017-10-18T11:56:51.444Z,564
2017-10-18T11:58:00.424Z,560
2017-10-18T11:59:09.407Z,564
2017-10-18T12:00:18.395Z,564
2017-10-18T12:01:28.500Z,564
2017-10-18T12:02:37.502Z,560
2017-10-18T12:03:46.811Z,560
2017-10-18T12:04:56.187Z,560
2017-10-18T12:06:04.878Z,556
2017-10-18T12:07:13.536Z,556
2017-10-18T12:08:22.602Z,556
2017-10-18T12:09:31.676Z,560
2017-10-18T12:10:40.664Z,556
2017-10-18T12:11:49.325Z,556
2017-10-18T12:12:58.353Z,552
2017-10-18T12:14:07.032Z,552
2017-10-18T12:15:16.377Z,552
2017-10-18T12:16:25.373Z,556
2017-10-18T12:17:34.741Z,556
2017-10-18T12:18:43.722Z,556
2017-10-18T12:19:52.401Z,556
2017-10-18T12:21:01.395Z,552
2017-10-18T12:22:10.055Z,552
2017-10-18T12:23:19.097Z,552
2017-10-18T12:24:28.422Z,552
2017-10-18T12:25:37.747Z,552
2017-10-18T12:26:47.069Z,556
2017-10-18T12:27:55.759Z,556
2017-10-18T12:29:05.424Z,556
2017-10-18T12:30:14.759Z,556
2017-10-18T12:31:23.423Z,556
2017-10-18T12:32:32.445Z,552
2017-10-18T12:33:41.431Z,552
2017-10-18T12:34:50.122Z,556
2017-10-18T12:35:59.542Z,552
2017-10-18T12:37:09.197Z,552
2017-10-18T12:38:18.541Z,552
2017-10-18T12:39:27.256Z,552
2017-10-18T12:40:36.575Z,552
2017-10-18T12:41:45.254Z,552
2017-10-18T12:42:54.261Z,548
2017-10-18T12:44:03.570Z,548
2017-10-18T12:45:12.236Z,548
2017-10-18T12:46:21.547Z,548
2017-10-18T12:47:30.868Z,548
2017-10-18T12:48:40.230Z,544
2017-10-18T12:49:49.232Z,548
2017-10-18T12:50:58.629Z,548
2017-10-18T12:52:07.645Z,544
2017-10-18T12:53:16.983Z,544
2017-10-18T12:54:25.672Z,544
2017-10-18T12:55:35.003Z,544
2017-10-18T12:56:43.654Z,544
2017-10-18T12:57:53.319Z,544
2017-10-18T12:59:02.342Z,540
2017-10-18T13:00:11.606Z,544
2017-10-18T13:01:20.661Z,540
2017-10-18T13:02:29.684Z,540
2017-10-18T13:03:38.396Z,540
2017-10-18T13:04:47.784Z,540
2017-10-18T13:05:56.835Z,536
2017-10-18T13:07:05.588Z,536
2017-10-18T13:08:14.908Z,532
2017-10-18T13:09:23.566Z,536
2017-10-18T13:10:32.877Z,532
2017-10-18T13:11:42.523Z,532
2017-10-18T13:12:51.860Z,528
2017-10-18T13:14:00.542Z,532
2017-10-18T13:15:09.590Z,528
2017-10-18T13:16:18.579Z,528
2017-10-18T13:17:27.905Z,528
2017-10-18T13:18:36.902Z,528
2017-10-18T13:19:46.580Z,528
2017-10-18T13:20:55.239Z,528
2017-10-18T13:22:04.230Z,524
2017-10-18T13:23:13.228Z,528
2017-10-18T13:24:22.264Z,524
2017-10-18T13:25:31.918Z,524
2017-10-18T13:26:41.241Z,524
2017-10-18T13:27:50.241Z,520
2017-10-18T13:28:58.964Z,520
2017-10-18T13:30:08.285Z,520
2017-10-18T13:31:17.951Z,516
2017-10-18T13:32:27.022Z,516
2017-10-18T13:33:36.040Z,516
2017-10-18T13:34:45.405Z,512
2017-10-18T13:35:55.067Z,512
2017-10-18T13:37:04.740Z,512
2017-10-18T13:38:14.067Z,512
2017-10-18T13:39:23.706Z,512
2017-10-18T13:40:32.701Z,508
2017-10-18T13:41:41.367Z,504
2017-10-18T13:42:50.722Z,508
2017-10-18T13:44:00.122Z,504
2017-10-18T13:45:09.428Z,504
2017-10-18T13:46:18.427Z,504
2017-10-18T13:47:27.091Z,504
2017-10-18T13:48:36.076Z,500
2017-10-18T13:49:45.454Z,500
2017-10-18T13:50:54.758Z,500
2017-10-18T13:52:04.088Z,504
2017-10-18T13:53:13.101Z,500
2017-10-18T13:54:21.837Z,500
2017-10-18T13:55:31.489Z,500
2017-10-18T13:56:41.149Z,500
2017-10-18T13:57:50.201Z,500
2017-10-18T13:58:59.230Z,496
2017-10-18T14:00:08.546Z,496
2017-10-18T14:01:17.233Z,492
2017-10-18T14:02:26.565Z,492
2017-10-18T14:03:35.555Z,492
2017-10-18T14:04:44.576Z,488
2017-10-18T14:05:53.891Z,488
2017-10-18T14:07:03.209Z,484
2017-10-18T14:08:11.896Z,484
2017-10-18T14:09:20.896Z,484
2017-10-18T14:10:30.226Z,480
2017-10-18T14:11:38.891Z,480
2017-10-18T14:12:48.207Z,480
2017-10-18T14:13:57.571Z,476
2017-10-18T14:15:06.885Z,476
2017-10-18T14:16:16.857Z,472
2017-10-18T14:17:25.828Z,472
2017-10-18T14:18:35.160Z,472
2017-10-18T14:19:45.139Z,468
2017-10-18T14:20:54.473Z,468
2017-10-18T14:22:03.856Z,464
2017-10-18T14:23:13.197Z,468
2017-10-18T14:24:22.204Z,464
2017-10-18T14:25:31.521Z,464
2017-10-18T14:26:40.245Z,460
2017-10-18T14:27:49.587Z,460
2017-10-18T14:28:58.900Z,456
2017-10-18T14:30:07.585Z,456
2017-10-18T14:31:16.900Z,452
2017-10-18T14:32:25.892Z,448
2017-10-18T14:33:34.886Z,448
2017-10-18T14:34:43.867Z,444
2017-10-18T14:35:52.862Z,444
2017-10-18T14:37:01.838Z,444
2017-10-18T14:38:10.571Z,440
2017-10-18T14:39:19.878Z,436
2017-10-18T14:40:29.518Z,436
2017-10-18T14:41:38.898Z,436
2017-10-18T14:42:48.244Z,432
2017-10-18T14:43:57.610Z,432
2017-10-18T14:45:06.290Z,428
2017-10-18T14:46:15.950Z,428
2017-10-18T14:47:25.622Z,424
2017-10-18T14:48:34.437Z,420
2017-10-18T14:49:43.096Z,420
2017-10-18T14:50:52.777Z,416
2017-10-18T14:52:01.769Z,416
2017-10-18T14:53:10.481Z,416
2017-10-18T14:54:19.477Z,412
2017-10-18T14:55:28.464Z,412
2017-10-18T14:56:37.454Z,408
2017-10-18T14:57:47.420Z,408
2017-10-18T14:58:56.748Z,404
2017-10-18T15:00:06.105Z,400
2017-10-18T15:01:15.087Z,400
2017-10-18T15:02:24.423Z,396
2017-10-18T15:03:33.398Z,396
2017-10-18T15:04:42.049Z,396
2017-10-18T15:05:51.688Z,392
2017-10-18T15:07:00.713Z,388
2017-10-18T15:08:09.743Z,384
2017-10-18T15:09:18.888Z,380
2017-10-18T15:10:27.966Z,376
2017-10-18T15:11:36.639Z,372
2017-10-18T15:12:45.965Z,372
2017-10-18T15:13:55.339Z,368
2017-10-18T15:15:04.682Z,368
2017-10-18T15:16:13.693Z,364
2017-10-18T15:17:22.511Z,360
2017-10-18T15:18:31.367Z,356
2017-10-18T15:19:40.579Z,352
2017-10-18T15:20:49.271Z,348
2017-10-18T15:21:58.732Z,344
2017-10-18T15:23:07.756Z,344
2017-10-18T15:24:17.113Z,340
2017-10-18T15:25:26.823Z,332
2017-10-18T15:26:36.304Z,328
2017-10-18T15:27:45.303Z,328
2017-10-18T15:28:54.639Z,324
2017-10-18T15:30:03.650Z,320
2017-10-18T15:31:12.312Z,316
2017-10-18T15:32:21.253Z,312
2017-10-18T15:33:30.686Z,308
2017-10-18T15:34:40.049Z,304
2017-10-18T15:35:50.052Z,300
2017-10-18T15:36:59.495Z,296
2017-10-18T15:38:09.264Z,292
2017-10-18T15:39:17.983Z,284
2017-10-18T15:40:27.323Z,284
2017-10-18T15:41:36.502Z,280
2017-10-18T15:42:45.683Z,276
2017-10-18T15:43:54.826Z,272
2017-10-18T15:45:04.452Z,264
2017-10-18T15:46:13.884Z,260
2017-10-18T15:47:23.446Z,256
2017-10-18T15:48:32.599Z,248
2017-10-18T15:49:41.627Z,244
2017-10-18T15:50:50.627Z,240
2017-10-18T15:51:59.663Z,232
2017-10-18T15:53:08.668Z,224
2017-10-18T15:54:17.681Z,216
2017-10-18T15:55:26.685Z,212
2017-10-18T15:56:35.369Z,208
2017-10-18T15:57:44.769Z,200
2017-10-18T15:58:54.100Z,196
2017-10-18T16:00:03.112Z,188
2017-10-18T16:01:12.525Z,180
2017-10-18T16:02:21.940Z,176
2017-10-18T16:03:31.295Z,168
2017-10-18T16:04:40.288Z,164
2017-10-18T16:05:49.920Z,156
2017-10-18T16:06:59.248Z,152
2017-10-18T16:08:07.934Z,140
2017-10-18T16:09:16.923Z,132
2017-10-18T16:10:26.238Z,128
2017-10-18T16:11:35.923Z,120
2017-10-18T16:12:44.997Z,112
2017-10-18T16:13:53.721Z,104
2017-10-18T16:15:03.037Z,100
2017-10-18T16:16:11.764Z,92
2017-10-18T16:17:21.173Z,88
2017-10-18T16:18:30.159Z,80
2017-10-18T16:19:39.152Z,76
2017-10-18T16:20:48.463Z,68
2017-10-18T16:21:57.787Z,64
2017-10-18T16:23:06.433Z,60
2017-10-18T16:24:15.496Z,56
2017-10-18T16:25:24.496Z,52
2017-10-18T16:26:33.159Z,48
2017-10-18T16:27:42.477Z,44
2017-10-18T16:28:51.779Z,40
2017-10-18T16:30:00.766Z,36
2017-10-18T16:31:09.773Z,32
2017-10-18T16:32:18.796Z,28
2017-10-18T16:33:27.817Z,24
2017-10-18T16:34:36.792Z,24
2017-10-18T16:35:45.814Z,20
2017-10-18T16:36:54.803Z,20
2017-10-18T16:38:04.150Z,16
2017-10-18T16:39:13.148Z,16
2017-10-18T16:40:21.796Z,16
2017-10-18T16:41:31.161Z,8
2017-10-18T16:42:40.502Z,12
2017-10-18T16:43:50.493Z,8
2017-10-18T16:44:59.488Z,8
2017-10-18T16:46:08.493Z,4
2017-10-18T16:47:17.495Z,4
2017-10-18T16:48:26.487Z,4
2017-10-18T16:49:35.871Z,4
2017-10-18T16:50:44.886Z,4
2017-10-18T16:51:53.573Z,0
2017-10-18T16:53:03.226Z,0
2017-10-18T16:54:12.247Z,0
2017-10-18T16:55:20.917Z,0
2017-10-18T16:56:29.598Z,0
2017-10-18T16:57:38.288Z,0
2017-10-18T16:58:46.959Z,0
2017-10-18T16:59:56.306Z,0
2017-10-18T17:01:04.971Z,0
2017-10-18T17:02:14.629Z,0
2017-10-18T17:03:23.961Z,0
2017-10-18T17:04:33.943Z,0
2017-10-18T17:05:43.285Z,0
2017-10-18T17:06:52.263Z,0
2017-10-18T17:08:00.911Z,0
2017-10-18T17:09:09.890Z,0
2017-10-18T17:10:19.216Z,0
2017-10-18T17:11:28.266Z,0
2017-10-18T17:12:37.584Z,0
2017-10-18T17:13:46.884Z,0
2017-10-18T17:14:55.890Z,0
2017-10-18T17:16:04.888Z,0
2017-10-18T17:17:14.198Z,0
2017-10-18T17:18:23.188Z,0
2017-10-18T17:19:32.567Z,0
2017-10-18T17:20:41.225Z,0
2017-10-18T17:21:50.880Z,0
2017-10-18T17:22:59.544Z,0
2017-10-18T17:24:08.547Z,0
2017-10-18T17:25:17.546Z,0
2017-10-18T17:26:26.530Z,0
2017-10-18T17:27:35.204Z,0
2017-10-18T17:28:44.189Z,0
2017-10-18T17:29:53.188Z,0
2017-10-18T17:31:02.179Z,0
2017-10-18T17:32:10.840Z,0
2017-10-18T17:33:19.824Z,0
2017-10-18T17:34:29.137Z,0
2017-10-18T17:35:38.826Z,0
2017-10-18T17:36:47.797Z,0
2017-10-18T17:37:57.120Z,0
2017-10-18T17:39:06.435Z,0
2017-10-18T17:40:15.447Z,0
2017-10-18T17:41:24.153Z,0
2017-10-18T17:42:32.815Z,4
2017-10-18T17:43:41.460Z,4
2017-10-18T17:44:50.436Z,8
2017-10-18T17:45:59.100Z,8
2017-10-18T17:47:08.113Z,8
2017-10-18T17:48:17.098Z,8
2017-10-18T17:49:25.760Z,8
2017-10-18T17:50:35.114Z,8
2017-10-18T17:51:44.469Z,8
2017-10-18T17:52:53.141Z,8
2017-10-18T17:54:02.469Z,4
2017-10-18T17:55:11.794Z,4
2017-10-18T17:56:21.413Z,4
2017-10-18T17:57:31.403Z,4
2017-10-18T17:58:40.071Z,4
2017-10-18T17:59:48.768Z,8
2017-10-18T18:00:57.734Z,8
2017-10-18T18:02:07.037Z,8
2017-10-18T18:03:16.696Z,4
2017-10-18T18:04:25.366Z,4
2017-10-18T18:05:34.686Z,4
2017-10-18T18:06:43.694Z,4
2017-10-18T18:07:52.672Z,4
2017-10-18T18:09:01.664Z,4
2017-10-18T18:10:10.997Z,8
2017-10-18T18:11:19.633Z,8
2017-10-18T18:12:28.643Z,8
2017-10-18T18:13:37.306Z,8
2017-10-18T18:14:46.287Z,4
2017-10-18T18:15:55.613Z,4
2017-10-18T18:17:04.625Z,8
2017-10-18T18:18:13.939Z,4
2017-10-18T18:19:23.290Z,4
2017-10-18T18:20:32.273Z,4
2017-10-18T18:21:40.954Z,4
2017-10-18T18:22:49.945Z,4
2017-10-18T18:23:58.935Z,4
2017-10-18T18:25:07.915Z,8
2017-10-18T18:26:16.903Z,8
2017-10-18T18:27:26.224Z,8
2017-10-18T18:28:35.577Z,8
2017-10-18T18:29:44.262Z,8
2017-10-18T18:30:53.295Z,8
2017-10-18T18:32:01.964Z,8
2017-10-18T18:33:11.291Z,4
2017-10-18T18:34:20.273Z,4
2017-10-18T18:35:29.671Z,4
2017-10-18T18:36:38.730Z,4
2017-10-18T18:37:47.712Z,4
2017-10-18T18:38:56.703Z,4
2017-10-18T18:40:06.034Z,4
2017-10-18T18:41:15.027Z,4
2017-10-18T18:42:24.358Z,4
2017-10-18T18:43:34.005Z,4
2017-10-18T18:44:42.668Z,4
2017-10-18T18:45:51.386Z,4
2017-10-18T18:47:00.374Z,4
2017-10-18T18:48:09.384Z,4
2017-10-18T18:49:18.364Z,4
2017-10-18T18:50:27.337Z,4
2017-10-18T18:51:36.723Z,4
2017-10-18T18:52:46.033Z,4
2017-10-18T18:53:55.376Z,4
2017-10-18T18:55:04.059Z,4
2017-10-18T18:56:13.103Z,4
2017-10-18T18:57:22.208Z,4
2017-10-18T18:58:30.889Z,4
2017-10-18T18:59:40.207Z,4
2017-10-18T19:00:48.889Z,4
2017-10-18T19:01:57.901Z,4
2017-10-18T19:03:06.897Z,4
2017-10-18T19:04:15.652Z,4
2017-10-18T19:05:24.322Z,4
2017-10-18T19:06:33.024Z,4
2017-10-18T19:07:41.752Z,4
2017-10-18T19:08:50.425Z,4
2017-10-18T19:09:59.106Z,4
2017-10-18T19:11:07.789Z,4
2017-10-18T19:12:17.493Z,4
2017-10-18T19:13:27.464Z,4
2017-10-18T19:14:36.133Z,4
2017-10-18T19:15:45.150Z,4
2017-10-18T19:16:54.815Z,4
2017-10-18T19:18:04.154Z,4
2017-10-18T19:19:12.818Z,4
2017-10-18T19:20:21.827Z,4
2017-10-18T19:21:30.848Z,4
2017-10-18T19:22:39.848Z,4
2017-10-18T19:23:49.183Z,4
2017-10-18T19:24:58.328Z,4
2017-10-18T19:26:07.753Z,4
2017-10-18T19:27:16.488Z,4
2017-10-18T19:28:25.944Z,4
2017-10-18T19:29:34.935Z,4
2017-10-18T19:30:44.281Z,4
2017-10-18T19:31:52.962Z,4
2017-10-18T19:33:02.622Z,4
2017-10-18T19:34:11.293Z,4
2017-10-18T19:35:20.073Z,4
2017-10-18T19:36:29.411Z,4
2017-10-18T19:37:38.501Z,4
2017-10-18T19:38:47.509Z,4
2017-10-18T19:39:56.838Z,4
2017-10-18T19:41:05.826Z,4
2017-10-18T19:42:15.138Z,4
2017-10-18T19:43:24.479Z,4
2017-10-18T19:44:33.486Z,4
2017-10-18T19:45:42.476Z,4
2017-10-18T19:46:51.494Z,4
2017-10-18T19:48:00.526Z,0
2017-10-18T19:49:09.512Z,4
2017-10-18T19:50:18.837Z,0
2017-10-18T19:51:27.484Z,4
2017-10-18T19:52:36.826Z,0
2017-10-18T19:53:46.172Z,0
2017-10-18T19:54:55.231Z,0
2017-10-18T19:56:04.231Z,0
2017-10-18T19:57:13.204Z,0
2017-10-18T19:58:21.853Z,0
2017-10-18T19:59:31.210Z,0
2017-10-18T20:00:39.911Z,0
2017-10-18T20:01:49.245Z,0
2017-10-18T20:02:57.923Z,0
2017-10-18T20:04:07.570Z,0
2017-10-18T20:05:16.908Z,0
2017-10-18T20:06:25.932Z,0
2017-10-18T20:07:35.264Z,0
2017-10-18T20:08:44.928Z,0
2017-10-18T20:09:53.899Z,0
2017-10-18T20:11:02.876Z,0
2017-10-18T20:12:12.177Z,0
2017-10-18T20:13:21.831Z,0
2017-10-18T20:14:31.491Z,0
2017-10-18T20:15:40.153Z,0
2017-10-18T20:16:49.147Z,0
2017-10-18T20:17:58.471Z,0
2017-10-18T20:19:07.836Z,0
2017-10-18T20:20:16.504Z,0
2017-10-18T20:21:25.176Z,0
2017-10-18T20:22:34.149Z,0
2017-10-18T20:23:43.284Z,0
2017-10-18T20:24:52.315Z,0
2017-10-18T20:26:01.307Z,0
2017-10-18T20:27:09.994Z,0
2017-10-18T20:28:18.988Z,0
2017-10-18T20:29:27.651Z,0
2017-10-18T20:30:36.353Z,0
2017-10-18T20:31:45.041Z,0
2017-10-18T20:32:54.351Z,0
2017-10-18T20:34:03.690Z,0
2017-10-18T20:35:12.373Z,0
2017-10-18T20:36:21.069Z,0
2017-10-18T20:37:30.051Z,0
2017-10-18T20:38:38.717Z,0
2017-10-18T20:39:48.385Z,0
2017-10-18T20:40:57.826Z,0
2017-10-18T20:42:07.178Z,0
2017-10-18T20:43:16.507Z,0
2017-10-18T20:44:26.148Z,0
2017-10-18T20:45:35.136Z,0
2017-10-18T20:46:43.848Z,0
2017-10-18T20:47:53.510Z,0
2017-10-18T20:49:02.517Z,0
2017-10-18T20:50:11.869Z,0
2017-10-18T20:51:20.576Z,0
2017-10-18T20:52:29.880Z,0
2017-10-18T20:53:39.187Z,0
2017-10-18T20:54:48.206Z,0
2017-10-18T20:55:57.511Z,0
2017-10-18T20:57:06.508Z,0
2017-10-18T20:58:15.505Z,0
2017-10-18T20:59:24.172Z,0
2017-10-18T21:00:32.867Z,0
2017-10-18T21:01:41.566Z,0
2017-10-18T21:02:50.548Z,0
2017-10-18T21:03:59.933Z,0
2017-10-18T21:05:09.272Z,0
2017-10-18T21:06:18.609Z,0
2017-10-18T21:07:27.932Z,0
2017-10-18T21:08:37.249Z,0
2017-10-18T21:09:45.910Z,0
2017-10-18T21:10:54.917Z,0
2017-10-18T21:12:04.243Z,0
2017-10-18T21:13:13.241Z,0
2017-10-18T21:14:22.549Z,0
2017-10-18T21:15:31.527Z,0
2017-10-18T21:16:40.506Z,0
2017-10-18T21:17:49.486Z,0
2017-10-18T21:18:58.797Z,0
2017-10-18T21:20:07.515Z,0
2017-10-18T21:21:16.566Z,0
2017-10-18T21:22:25.910Z,0
2017-10-18T21:23:34.580Z,0
2017-10-18T21:24:43.583Z,0
2017-10-18T21:25:52.577Z,0
2017-10-18T21:27:01.565Z,0
2017-10-18T21:28:10.260Z,0
2017-10-18T21:29:19.976Z,0
2017-10-18T21:30:28.965Z,0
2017-10-18T21:31:38.283Z,0
2017-10-18T21:32:47.604Z,0
2017-10-18T21:33:56.933Z,0
2017-10-18T21:35:05.918Z,0
2017-10-18T21:36:14.910Z,0
2017-10-18T21:37:24.630Z,0
2017-10-18T21:38:33.604Z,0
2017-10-18T21:39:43.234Z,0
2017-10-18T21:40:52.224Z,0
2017-10-18T21:42:00.876Z,0
2017-10-18T21:43:09.563Z,0
2017-10-18T21:44:18.584Z,0
2017-10-18T21:45:27.574Z,0
2017-10-18T21:46:37.237Z,0
2017-10-18T21:47:45.933Z,0
2017-10-18T21:48:55.315Z,0
2017-10-18T21:50:04.689Z,0
2017-10-18T21:51:13.989Z,0
2017-10-18T21:52:22.638Z,0
2017-10-18T21:53:31.603Z,0
2017-10-18T21:54:40.900Z,0
2017-10-18T21:55:49.569Z,0
2017-10-18T21:56:58.875Z,0
2017-10-18T21:58:07.850Z,0
2017-10-18T21:59:16.841Z,0
2017-10-18T22:00:25.830Z,0
2017-10-18T22:01:35.484Z,0
2017-10-18T22:02:44.807Z,0
2017-10-18T22:03:54.447Z,0
2017-10-18T22:05:03.429Z,0
2017-10-18T22:06:12.490Z,0
2017-10-18T22:07:21.454Z,0
2017-10-18T22:08:30.152Z,0
2017-10-18T22:09:40.255Z,0
2017-10-18T22:10:50.452Z,0
2017-10-18T22:11:59.439Z,0
2017-10-18T22:13:08.451Z,0
2017-10-18T22:14:18.809Z,0
2017-10-18T22:15:27.778Z,0
2017-10-18T22:16:36.774Z,0
2017-10-18T22:17:45.555Z,0
2017-10-18T22:18:55.550Z,0
2017-10-18T22:20:04.535Z,0
2017-10-18T22:21:14.082Z,0
2017-10-18T22:22:23.388Z,0
2017-10-18T22:23:32.194Z,0
2017-10-18T22:24:41.707Z,0
2017-10-18T22:25:50.706Z,0
2017-10-18T22:26:59.682Z,0
2017-10-18T22:28:08.658Z,0
2017-10-18T22:29:17.960Z,0
2017-10-18T22:30:26.932Z,0
2017-10-18T22:31:35.646Z,0
2017-10-18T22:32:44.626Z,0
2017-10-18T22:33:53.285Z,0
2017-10-18T22:35:01.930Z,0
2017-10-18T22:36:10.899Z,0
2017-10-18T22:37:19.859Z,0
2017-10-18T22:38:28.515Z,0
2017-10-18T22:39:37.484Z,0
2017-10-18T22:40:46.472Z,0
2017-10-18T22:41:55.784Z,0
2017-10-18T22:43:04.754Z,0
2017-10-18T22:44:13.393Z,0
2017-10-18T22:45:22.375Z,0
2017-10-18T22:46:31.020Z,0
2017-10-18T22:47:40.004Z,0
2017-10-18T22:48:49.330Z,0
2017-10-18T22:49:57.987Z,0